Time;durP1;ratioP1;P1;durP2;ratioP2;P2;SDS_P1;SDS_P2;PMS_P1;PMS_P2;Temp;Humidity;BMP_temperature;BMP_pressure;BME280_temperature;BME280_humidity;BME280_pressure;Samples;Min_cycle;Max_cycle;Signal;HPM_P1;HPM_P2
2022/01/09 00:00:38;;;;;;;1.42;1.30;;;;;;;;;;4970626;28;20201;-78
2022/01/09 00:03:05;;;;;;;1.75;1.60;;;;;;;;;;4971689;28;20410;-78
2022/01/09 00:05:34;;;;;;;1.90;1.70;;;;;;;;;;4971128;28;20181;-78
2022/01/09 00:08:01;;;;;;;1.38;1.27;;;;;;;;;;4971153;28;20217;-78
2022/01/09 00:10:30;;;;;;;1.60;1.45;;;;;;;;;;4969940;28;20740;-78
2022/01/09 00:12:58;;;;;;;2.13;1.40;;;;;;;;;;4969491;28;20205;-77
2022/01/09 00:15:25;;;;;;;1.83;1.40;;;;;;;;;;4970498;28;20626;-78
2022/01/09 00:17:52;;;;;;;1.40;1.30;;;;;;;;;;4971442;28;20222;-78
2022/01/09 00:20:19;;;;;;;1.77;1.38;;;;;;;;;;4968056;28;20198;-78
2022/01/09 00:22:52;;;;;;;1.60;1.20;;;;;;;;;;4965389;28;20217;-79
2022/01/09 00:25:20;;;;;;;1.30;0.90;;;;;;;;;;4969311;28;20654;-79
2022/01/09 00:27:47;;;;;;;1.00;0.90;;;;;;;;;;4972926;28;20571;-77
2022/01/09 00:30:18;;;;;;;1.20;1.08;;;;;;;;;;4972644;28;20193;-78
2022/01/09 00:32:45;;;;;;;1.13;1.02;;;;;;;;;;4971016;28;20211;-78
2022/01/09 00:35:13;;;;;;;1.30;1.00;;;;;;;;;;4967748;28;20578;-78
2022/01/09 00:37:40;;;;;;;1.00;0.90;;;;;;;;;;4973145;28;20240;-78
2022/01/09 00:40:10;;;;;;;0.80;0.80;;;;;;;;;;4990206;28;20589;-79
2022/01/09 00:42:37;;;;;;;1.08;0.98;;;;;;;;;;4973939;28;20283;-78
2022/01/09 00:45:05;;;;;;;0.80;0.80;;;;;;;;;;4991181;28;20193;-78
2022/01/09 00:47:32;;;;;;;2.08;1.05;;;;;;;;;;4991282;28;20396;-79
2022/01/09 00:50:00;;;;;;;1.67;0.80;;;;;;;;;;4992407;28;20657;-77
2022/01/09 00:52:27;;;;;;;1.15;0.95;;;;;;;;;;4993659;28;20200;-78
2022/01/09 00:54:54;;;;;;;1.02;0.80;;;;;;;;;;4991124;28;20205;-78
2022/01/09 00:57:23;;;;;;;1.15;0.80;;;;;;;;;;4988765;28;20223;-77
2022/01/09 00:59:51;;;;;;;1.25;1.00;;;;;;;;;;4986902;28;20200;-78
2022/01/09 01:02:18;;;;;;;0.90;0.80;;;;;;;;;;4989279;28;20212;-77
2022/01/09 01:04:47;;;;;;;1.13;0.80;;;;;;;;;;4990504;28;20196;-77
2022/01/09 01:07:15;;;;;;;1.80;0.95;;;;;;;;;;4989797;28;20225;-77
2022/01/09 01:09:42;;;;;;;0.88;0.80;;;;;;;;;;4989866;28;20335;-77
2022/01/09 01:12:09;;;;;;;0.82;0.73;;;;;;;;;;4987589;28;20204;-77
2022/01/09 01:14:38;;;;;;;4.40;0.88;;;;;;;;;;4986757;28;20193;-78
2022/01/09 01:17:05;;;;;;;1.00;0.90;;;;;;;;;;4984964;28;20216;-78
2022/01/09 01:19:32;;;;;;;1.00;0.80;;;;;;;;;;4990883;28;20235;-78
2022/01/09 01:22:01;;;;;;;0.90;0.80;;;;;;;;;;4988995;28;20212;-78
2022/01/09 01:24:28;;;;;;;0.80;0.73;;;;;;;;;;4991383;28;20207;-78
2022/01/09 01:26:55;;;;;;;1.52;0.90;;;;;;;;;;4988262;28;20220;-78
2022/01/09 01:29:22;;;;;;;0.80;0.77;;;;;;;;;;4988071;28;20200;-78
2022/01/09 01:31:51;;;;;;;0.98;0.88;;;;;;;;;;4988288;28;20205;-78
2022/01/09 01:34:18;;;;;;;0.98;0.88;;;;;;;;;;4990158;28;20209;-78
2022/01/09 01:36:45;;;;;;;1.15;0.80;;;;;;;;;;4987531;28;20224;-78
2022/01/09 01:39:12;;;;;;;0.70;0.70;;;;;;;;;;4990851;28;20227;-77
2022/01/09 01:41:40;;;;;;;1.65;0.90;;;;;;;;;;4990165;28;20193;-77
2022/01/09 01:44:09;;;;;;;1.40;0.80;;;;;;;;;;4988084;28;20806;-78
2022/01/09 01:46:37;;;;;;;0.90;0.70;;;;;;;;;;4988236;28;20660;-77
2022/01/09 01:49:06;;;;;;;1.20;0.90;;;;;;;;;;4989973;28;20201;-77
2022/01/09 01:51:34;;;;;;;3.20;1.20;;;;;;;;;;4970763;28;20527;-77
2022/01/09 01:54:01;;;;;;;3.90;1.00;;;;;;;;;;4990257;28;20200;-78
2022/01/09 01:56:29;;;;;;;2.58;1.00;;;;;;;;;;4989690;28;20244;-77
2022/01/09 01:58:56;;;;;;;2.55;1.25;;;;;;;;;;4987942;28;20211;-77
2022/01/09 02:01:23;;;;;;;4.80;1.10;;;;;;;;;;4989091;28;20200;-77
2022/01/09 02:03:50;;;;;;;2.42;1.58;;;;;;;;;;4987687;28;20201;-78
2022/01/09 02:06:19;;;;;;;3.92;1.80;;;;;;;;;;4986807;28;20213;-78
2022/01/09 02:08:46;;;;;;;2.65;1.55;;;;;;;;;;4987407;28;20228;-77
2022/01/09 02:11:13;;;;;;;2.83;2.15;;;;;;;;;;4989280;28;20692;-77
2022/01/09 02:13:44;;;;;;;8.07;2.00;;;;;;;;;;4989542;28;20207;-78
2022/01/09 02:16:16;;;;;;;2.30;2.10;;;;;;;;;;4987938;28;20228;-77
2022/01/09 02:18:44;;;;;;;3.20;2.20;;;;;;;;;;4986622;28;20196;-77
2022/01/09 02:21:12;;;;;;;2.22;1.65;;;;;;;;;;4986716;28;20205;-77
2022/01/09 02:23:41;;;;;;;2.95;1.42;;;;;;;;;;4972077;28;20295;-78
2022/01/09 02:26:09;;;;;;;1.98;1.58;;;;;;;;;;4990438;28;20641;-78
2022/01/09 02:28:36;;;;;;;2.97;1.15;;;;;;;;;;4975662;28;20201;-78
2022/01/09 02:31:03;;;;;;;3.22;1.35;;;;;;;;;;4993942;28;20197;-77
2022/01/09 02:33:30;;;;;;;2.30;1.40;;;;;;;;;;4992976;28;20200;-77
2022/01/09 02:35:57;;;;;;;2.42;1.35;;;;;;;;;;4995540;28;20196;-78
2022/01/09 02:38:26;;;;;;;1.92;1.30;;;;;;;;;;4993829;28;20606;-77
2022/01/09 02:40:53;;;;;;;2.08;1.17;;;;;;;;;;4992316;28;20197;-78
2022/01/09 02:43:21;;;;;;;2.17;1.40;;;;;;;;;;4972799;28;20654;-78
2022/01/09 02:45:54;;;;;;;1.95;1.23;;;;;;;;;;4971355;28;20205;-78
2022/01/09 02:48:21;;;;;;;2.03;1.00;;;;;;;;;;4970099;28;20299;-79
2022/01/09 02:51:00;;;;;;;2.97;1.00;;;;;;;;;;4993445;28;20196;-78
2022/01/09 02:53:33;;;;;;;6.20;1.80;;;;;;;;;;4978846;28;20240;-79
2022/01/09 02:56:00;;;;;;;4.15;1.20;;;;;;;;;;4991693;28;20200;-78
2022/01/09 02:58:27;;;;;;;2.58;1.40;;;;;;;;;;4995598;28;20665;-78
2022/01/09 03:00:54;;;;;;;1.88;1.67;;;;;;;;;;4992845;28;20201;-80
2022/01/09 03:03:21;;;;;;;5.60;2.25;;;;;;;;;;4990320;28;20209;-79
2022/01/09 03:05:48;;;;;;;4.90;1.92;;;;;;;;;;4990489;28;20211;-78
2022/01/09 03:08:16;;;;;;;8.20;2.25;;;;;;;;;;4989919;28;20232;-78
2022/01/09 03:10:44;;;;;;;6.82;2.00;;;;;;;;;;4989577;28;20900;-79
2022/01/09 03:13:12;;;;;;;10.48;2.30;;;;;;;;;;4992956;28;20205;-80
2022/01/09 03:15:39;;;;;;;7.78;2.30;;;;;;;;;;4974164;28;20201;-78
2022/01/09 03:18:07;;;;;;;8.65;2.47;;;;;;;;;;4988397;28;20220;-79
2022/01/09 03:20:34;;;;;;;12.50;2.60;;;;;;;;;;4988951;28;20212;-79
2022/01/09 03:23:01;;;;;;;11.32;3.13;;;;;;;;;;4989845;28;20204;-80
2022/01/09 03:25:29;;;;;;;12.95;3.30;;;;;;;;;;4990589;28;20456;-79
2022/01/09 03:27:58;;;;;;;17.15;3.92;;;;;;;;;;4974291;28;20580;-79
2022/01/09 03:30:25;;;;;;;23.08;4.60;;;;;;;;;;4991429;28;20197;-80
2022/01/09 03:32:54;;;;;;;12.30;3.28;;;;;;;;;;4993036;28;20208;-80
2022/01/09 03:35:22;;;;;;;26.77;4.28;;;;;;;;;;4992301;28;20196;-79
2022/01/09 03:37:50;;;;;;;14.27;3.50;;;;;;;;;;4972915;28;20243;-79
2022/01/09 03:40:19;;;;;;;11.82;3.22;;;;;;;;;;4972761;28;20201;-79
2022/01/09 03:42:47;;;;;;;10.80;2.97;;;;;;;;;;4974378;28;20205;-79
2022/01/09 03:45:16;;;;;;;11.50;3.53;;;;;;;;;;4975612;28;20354;-79
2022/01/09 03:47:44;;;;;;;12.45;3.72;;;;;;;;;;4990305;28;20221;-79
2022/01/09 03:50:12;;;;;;;23.27;4.00;;;;;;;;;;4992449;28;20420;-79
2022/01/09 03:52:40;;;;;;;21.63;3.70;;;;;;;;;;4983895;28;20204;-79
2022/01/09 03:55:09;;;;;;;19.67;5.15;;;;;;;;;;4992227;28;20585;-79
2022/01/09 03:57:36;;;;;;;16.60;3.97;;;;;;;;;;4988562;28;20220;-78
2022/01/09 04:00:03;;;;;;;19.90;4.55;;;;;;;;;;4989561;28;20205;-79
2022/01/09 04:04:58;;;;;;;18.70;5.00;;;;;;;;;;4989212;28;20200;-79
2022/01/09 04:07:25;;;;;;;21.30;5.63;;;;;;;;;;4989842;28;20483;-79
2022/01/09 04:09:54;;;;;;;15.65;4.55;;;;;;;;;;4988381;28;20205;-80
2022/01/09 04:12:32;;;;;;;16.25;4.80;;;;;;;;;;4989883;28;20239;-79
2022/01/09 04:15:02;;;;;;;22.02;6.38;;;;;;;;;;4986506;28;20696;-79
2022/01/09 04:17:38;;;;;;;22.30;5.72;;;;;;;;;;4989288;28;20232;-80
2022/01/09 04:20:07;;;;;;;29.75;6.40;;;;;;;;;;4989968;28;20259;-79
2022/01/09 04:22:35;;;;;;;28.00;6.00;;;;;;;;;;4991966;28;20208;-80
2022/01/09 04:25:02;;;;;;;18.77;5.78;;;;;;;;;;4992199;28;20196;-78
2022/01/09 04:27:29;;;;;;;27.05;6.47;;;;;;;;;;4991039;28;20316;-78
2022/01/09 04:29:56;;;;;;;28.98;7.10;;;;;;;;;;4993126;28;20207;-79
2022/01/09 04:32:24;;;;;;;29.38;7.13;;;;;;;;;;4994090;28;20205;-78
2022/01/09 04:34:51;;;;;;;33.00;6.97;;;;;;;;;;4989823;28;20224;-79
2022/01/09 04:37:20;;;;;;;26.20;6.97;;;;;;;;;;4988204;28;20576;-80
2022/01/09 04:39:57;;;;;;;28.50;7.50;;;;;;;;;;4986975;28;20197;-80
2022/01/09 04:42:30;;;;;;;21.52;6.43;;;;;;;;;;4972298;28;20215;-80
2022/01/09 04:44:57;;;;;;;31.88;6.25;;;;;;;;;;4972357;28;20215;-81
2022/01/09 04:47:24;;;;;;;29.23;5.90;;;;;;;;;;4971942;28;20466;-80
2022/01/09 04:49:51;;;;;;;33.33;7.10;;;;;;;;;;4977581;28;20288;-80
2022/01/09 04:52:24;;;;;;;16.95;6.13;;;;;;;;;;4993877;28;20649;-80
2022/01/09 04:54:51;;;;;;;21.35;5.50;;;;;;;;;;4992643;28;20536;-79
2022/01/09 04:57:19;;;;;;;33.38;5.75;;;;;;;;;;4990962;28;20236;-79
2022/01/09 04:59:46;;;;;;;27.63;5.70;;;;;;;;;;4989138;28;20197;-79
2022/01/09 05:02:13;;;;;;;27.33;5.50;;;;;;;;;;4987705;28;20205;-80
2022/01/09 05:04:40;;;;;;;31.67;6.50;;;;;;;;;;4991515;28;20211;-79
2022/01/09 05:07:07;;;;;;;20.48;4.63;;;;;;;;;;4991629;28;20224;-79
2022/01/09 05:09:36;;;;;;;29.05;5.35;;;;;;;;;;4988987;28;20288;-79
2022/01/09 05:12:03;;;;;;;17.83;4.65;;;;;;;;;;4990773;28;20207;-80
2022/01/09 05:14:30;;;;;;;22.33;6.07;;;;;;;;;;4988590;28;20208;-80
2022/01/09 05:16:57;;;;;;;34.80;5.45;;;;;;;;;;4987805;28;20220;-79
2022/01/09 05:19:28;;;;;;;23.85;5.20;;;;;;;;;;4987477;28;20193;-80
2022/01/09 05:21:56;;;;;;;15.05;4.80;;;;;;;;;;4989098;28;20248;-79
2022/01/09 05:24:24;;;;;;;24.35;5.28;;;;;;;;;;4989398;28;20197;-80
2022/01/09 05:26:53;;;;;;;29.55;6.00;;;;;;;;;;4989291;28;20585;-79
2022/01/09 05:29:20;;;;;;;17.92;5.47;;;;;;;;;;4989683;28;20731;-80
2022/01/09 05:31:48;;;;;;;16.95;4.70;;;;;;;;;;4987105;28;20661;-79
2022/01/09 05:34:16;;;;;;;24.52;5.55;;;;;;;;;;4987378;28;20640;-80
2022/01/09 05:36:43;;;;;;;21.88;5.22;;;;;;;;;;4989743;28;20224;-79
2022/01/09 05:39:10;;;;;;;22.13;5.47;;;;;;;;;;4987082;28;20328;-79
2022/01/09 05:41:38;;;;;;;20.17;4.72;;;;;;;;;;4988109;28;20207;-79
2022/01/09 05:44:06;;;;;;;23.60;5.68;;;;;;;;;;4991138;28;20267;-79
2022/01/09 05:46:34;;;;;;;13.90;4.20;;;;;;;;;;4988064;28;20216;-80
2022/01/09 05:49:01;;;;;;;22.33;3.75;;;;;;;;;;4987143;28;20201;-79
2022/01/09 05:51:28;;;;;;;16.23;3.88;;;;;;;;;;4990138;28;20582;-78
2022/01/09 05:53:55;;;;;;;18.27;4.30;;;;;;;;;;4990593;28;20554;-78
2022/01/09 05:56:22;;;;;;;13.55;4.72;;;;;;;;;;4988536;28;20232;-78
2022/01/09 05:58:49;;;;;;;28.13;5.60;;;;;;;;;;4990643;28;20736;-79
2022/01/09 06:01:18;;;;;;;16.02;4.35;;;;;;;;;;4992375;28;20205;-79
2022/01/09 06:03:45;;;;;;;20.50;4.20;;;;;;;;;;4990269;28;20571;-79
2022/01/09 06:06:12;;;;;;;17.05;4.47;;;;;;;;;;4989573;28;20555;-78
2022/01/09 06:08:39;;;;;;;19.95;4.30;;;;;;;;;;4990504;28;20212;-78
2022/01/09 06:11:07;;;;;;;12.10;4.15;;;;;;;;;;4994577;28;20548;-79
2022/01/09 06:13:34;;;;;;;17.63;4.10;;;;;;;;;;4994236;28;20196;-78
2022/01/09 06:16:03;;;;;;;21.73;4.50;;;;;;;;;;4976445;28;20216;-78
2022/01/09 06:18:32;;;;;;;14.48;3.45;;;;;;;;;;4992910;28;20311;-78
2022/01/09 06:20:59;;;;;;;25.77;4.18;;;;;;;;;;4989694;28;20189;-78
2022/01/09 06:23:26;;;;;;;16.42;3.80;;;;;;;;;;4992212;28;20668;-78
2022/01/09 06:25:54;;;;;;;23.08;5.60;;;;;;;;;;4993522;28;20212;-79
2022/01/09 06:28:21;;;;;;;14.30;4.45;;;;;;;;;;4992536;28;20231;-78
2022/01/09 06:30:48;;;;;;;8.63;3.47;;;;;;;;;;4993315;28;20211;-78
2022/01/09 06:33:16;;;;;;;21.08;5.15;;;;;;;;;;4994181;28;20211;-78
2022/01/09 06:35:45;;;;;;;11.90;3.60;;;;;;;;;;4974365;28;20209;-77
2022/01/09 06:38:12;;;;;;;17.63;3.78;;;;;;;;;;4977635;28;20232;-78
2022/01/09 06:40:39;;;;;;;14.82;3.35;;;;;;;;;;4993019;28;20216;-78
2022/01/09 06:43:07;;;;;;;10.48;3.35;;;;;;;;;;4992370;28;20207;-78
2022/01/09 06:45:34;;;;;;;18.08;3.85;;;;;;;;;;4974237;28;20209;-79
2022/01/09 06:48:02;;;;;;;18.38;4.30;;;;;;;;;;4991629;28;20567;-78
2022/01/09 06:50:29;;;;;;;15.57;4.45;;;;;;;;;;4993490;28;20933;-78
2022/01/09 06:52:58;;;;;;;15.35;4.90;;;;;;;;;;4992491;28;20197;-78
2022/01/09 06:55:25;;;;;;;16.92;3.90;;;;;;;;;;4993362;28;20200;-79
2022/01/09 06:57:53;;;;;;;21.38;4.60;;;;;;;;;;4973832;28;20224;-78
2022/01/09 07:00:21;;;;;;;12.43;3.90;;;;;;;;;;4991185;28;20223;-78
2022/01/09 07:02:48;;;;;;;12.50;3.80;;;;;;;;;;4992510;28;20212;-78
2022/01/09 07:05:16;;;;;;;16.77;4.70;;;;;;;;;;4991724;28;20201;-78
2022/01/09 07:07:43;;;;;;;14.05;3.95;;;;;;;;;;4993746;28;20217;-78
2022/01/09 07:10:12;;;;;;;22.13;5.35;;;;;;;;;;4993568;28;20340;-79
2022/01/09 07:12:39;;;;;;;12.40;4.05;;;;;;;;;;4990802;28;20211;-78
2022/01/09 07:15:07;;;;;;;13.57;3.97;;;;;;;;;;4978494;28;20301;-78
2022/01/09 07:17:34;;;;;;;15.73;4.40;;;;;;;;;;4993111;28;20229;-78
2022/01/09 07:20:02;;;;;;;21.20;4.40;;;;;;;;;;4994199;28;20200;-78
2022/01/09 07:22:29;;;;;;;20.63;5.15;;;;;;;;;;4990996;28;20192;-80
2022/01/09 07:24:57;;;;;;;10.27;4.05;;;;;;;;;;4991669;28;20204;-81
2022/01/09 07:27:25;;;;;;;14.70;4.88;;;;;;;;;;4990788;28;20824;-81
2022/01/09 07:29:52;;;;;;;19.08;4.70;;;;;;;;;;4992031;28;20205;-82
2022/01/09 07:32:19;;;;;;;14.40;4.03;;;;;;;;;;4993306;28;20570;-82
2022/01/09 07:34:49;;;;;;;22.05;4.10;;;;;;;;;;4992542;28;20224;-81
2022/01/09 07:37:16;;;;;;;14.45;4.38;;;;;;;;;;4994025;28;20213;-81
2022/01/09 07:39:43;;;;;;;19.35;4.75;;;;;;;;;;4994222;28;20215;-82
2022/01/09 07:42:11;;;;;;;17.25;5.28;;;;;;;;;;4992154;28;20200;-80
2022/01/09 07:44:39;;;;;;;15.65;4.88;;;;;;;;;;4990536;28;20212;-81
2022/01/09 07:47:06;;;;;;;15.65;5.18;;;;;;;;;;4989215;28;20221;-82
2022/01/09 07:49:33;;;;;;;21.30;5.45;;;;;;;;;;4992886;28;20200;-80
2022/01/09 07:52:00;;;;;;;10.15;4.35;;;;;;;;;;4990719;28;20220;-81
2022/01/09 07:54:28;;;;;;;16.58;4.90;;;;;;;;;;4991864;28;20208;-82
2022/01/09 07:56:55;;;;;;;12.63;4.15;;;;;;;;;;4992493;28;20580;-81
2022/01/09 07:59:22;;;;;;;10.23;4.10;;;;;;;;;;4993106;28;20227;-82
2022/01/09 08:01:51;;;;;;;10.05;3.42;;;;;;;;;;4989217;28;20207;-84
2022/01/09 08:04:19;;;;;;;10.65;3.60;;;;;;;;;;4972752;28;20872;-81
2022/01/09 08:06:46;;;;;;;11.48;3.90;;;;;;;;;;4991541;28;20223;-80
2022/01/09 08:09:13;;;;;;;11.63;3.75;;;;;;;;;;4988647;28;20205;-80
2022/01/09 08:11:40;;;;;;;10.02;4.18;;;;;;;;;;4983468;28;20469;-80
2022/01/09 08:14:07;;;;;;;12.52;4.10;;;;;;;;;;4985667;28;20197;-78
2022/01/09 08:16:35;;;;;;;14.63;4.00;;;;;;;;;;4987790;28;20299;-79
2022/01/09 08:19:04;;;;;;;14.55;5.20;;;;;;;;;;4988138;28;20232;-80
2022/01/09 08:21:31;;;;;;;24.05;5.10;;;;;;;;;;4988706;28;20196;-82
2022/01/09 08:23:58;;;;;;;17.02;4.35;;;;;;;;;;4989766;28;20193;-79
2022/01/09 08:26:25;;;;;;;12.07;3.53;;;;;;;;;;4988949;28;20217;-79
2022/01/09 08:28:54;;;;;;;9.82;3.70;;;;;;;;;;4990910;28;20533;-78
2022/01/09 08:31:22;;;;;;;13.02;4.10;;;;;;;;;;4989451;28;20551;-79
2022/01/09 08:33:49;;;;;;;12.32;4.57;;;;;;;;;;4991765;28;20196;-80
2022/01/09 08:36:17;;;;;;;15.18;4.00;;;;;;;;;;4988844;28;22513;-80
2022/01/09 08:38:45;;;;;;;12.10;3.95;;;;;;;;;;4988975;28;20231;-79
2022/01/09 08:41:12;;;;;;;12.80;4.28;;;;;;;;;;4988978;28;20197;-78
2022/01/09 08:43:39;;;;;;;19.33;4.65;;;;;;;;;;4990171;28;20201;-79
2022/01/09 08:46:06;;;;;;;11.90;4.80;;;;;;;;;;4991663;28;20476;-80
2022/01/09 08:48:34;;;;;;;12.05;4.60;;;;;;;;;;4990422;28;20417;-81
2022/01/09 08:51:01;;;;;;;14.90;5.13;;;;;;;;;;4992295;28;20793;-81
2022/01/09 08:53:31;;;;;;;20.35;5.70;;;;;;;;;;4975868;28;20203;-81
2022/01/09 08:55:58;;;;;;;16.08;5.05;;;;;;;;;;4988690;28;20259;-78
2022/01/09 08:58:25;;;;;;;13.07;5.32;;;;;;;;;;4988081;28;20228;-80
2022/01/09 09:00:52;;;;;;;14.95;4.60;;;;;;;;;;4986965;28;20197;-79
2022/01/09 09:03:20;;;;;;;24.15;4.85;;;;;;;;;;4991185;28;20204;-80
2022/01/09 09:05:47;;;;;;;13.48;4.55;;;;;;;;;;4990480;28;20197;-78
2022/01/09 09:08:14;;;;;;;13.35;5.20;;;;;;;;;;4989787;28;20221;-79
2022/01/09 09:10:42;;;;;;;10.02;3.78;;;;;;;;;;4990328;28;20817;-78
2022/01/09 09:13:09;;;;;;;13.82;4.45;;;;;;;;;;4992245;28;20203;-80
2022/01/09 09:15:37;;;;;;;11.02;4.60;;;;;;;;;;4991140;28;21942;-77
2022/01/09 09:18:04;;;;;;;11.27;4.82;;;;;;;;;;4990921;28;20220;-80
2022/01/09 09:20:31;;;;;;;11.75;4.63;;;;;;;;;;4988707;28;20847;-79
2022/01/09 09:22:58;;;;;;;9.82;5.10;;;;;;;;;;4989527;28;20255;-79
2022/01/09 09:25:26;;;;;;;9.70;4.43;;;;;;;;;;4985587;28;20197;-80
2022/01/09 09:27:54;;;;;;;12.27;4.05;;;;;;;;;;4991391;28;20578;-81
2022/01/09 09:30:21;;;;;;;24.45;5.55;;;;;;;;;;4988278;28;20203;-82
2022/01/09 09:32:49;;;;;;;7.53;4.85;;;;;;;;;;4990554;28;20189;-79
2022/01/09 09:35:16;;;;;;;13.32;4.82;;;;;;;;;;4989663;28;20646;-80
2022/01/09 09:37:43;;;;;;;14.00;4.47;;;;;;;;;;4987379;28;20685;-80
2022/01/09 09:40:11;;;;;;;9.50;4.32;;;;;;;;;;4987878;28;20744;-78
2022/01/09 09:42:38;;;;;;;17.92;5.45;;;;;;;;;;4988406;28;20655;-78
2022/01/09 09:45:07;;;;;;;14.07;5.55;;;;;;;;;;4986418;28;20664;-79
2022/01/09 09:47:35;;;;;;;12.23;4.63;;;;;;;;;;4990341;28;20212;-78
2022/01/09 09:50:03;;;;;;;14.00;5.25;;;;;;;;;;4973782;28;20657;-78
2022/01/09 09:52:30;;;;;;;15.88;5.18;;;;;;;;;;4970547;28;20212;-79
2022/01/09 09:54:58;;;;;;;9.07;4.63;;;;;;;;;;4973850;28;20203;-79
2022/01/09 09:57:25;;;;;;;19.40;5.65;;;;;;;;;;4992411;28;20243;-78
2022/01/09 10:00:00;;;;;;;17.27;5.88;;;;;;;;;;4988332;28;20315;-78
2022/01/09 10:02:41;;;;;;;26.80;6.20;;;;;;;;;;4971569;28;20258;-79
2022/01/09 10:05:09;;;;;;;13.05;4.82;;;;;;;;;;4987779;28;20197;-76
2022/01/09 10:07:36;;;;;;;8.43;4.25;;;;;;;;;;4990504;28;20220;-79
2022/01/09 10:10:05;;;;;;;18.17;5.15;;;;;;;;;;4990327;28;20196;-77
2022/01/09 10:12:33;;;;;;;10.68;4.68;;;;;;;;;;4970663;28;20662;-78
2022/01/09 10:15:01;;;;;;;11.07;4.60;;;;;;;;;;4972894;28;20200;-78
2022/01/09 10:17:32;;;;;;;12.00;5.70;;;;;;;;;;4991559;28;20217;-79
2022/01/09 10:20:02;;;;;;;7.72;4.00;;;;;;;;;;4989547;28;20224;-77
2022/01/09 10:22:32;;;;;;;11.77;4.30;;;;;;;;;;4968522;28;20592;-80
2022/01/09 10:25:17;;;;;;;11.90;4.35;;;;;;;;;;4988869;28;20248;-76
2022/01/09 10:27:44;;;;;;;10.35;4.68;;;;;;;;;;4984703;28;20303;-79
2022/01/09 10:30:13;;;;;;;7.15;4.15;;;;;;;;;;4990227;28;20392;-78
2022/01/09 10:32:42;;;;;;;8.27;4.63;;;;;;;;;;4989159;28;20228;-79
2022/01/09 10:35:12;;;;;;;7.75;4.20;;;;;;;;;;4990660;28;20205;-78
2022/01/09 10:37:40;;;;;;;8.88;3.88;;;;;;;;;;4989361;28;20260;-78
2022/01/09 10:40:09;;;;;;;12.55;4.20;;;;;;;;;;4986678;28;20854;-77
2022/01/09 10:42:36;;;;;;;9.27;4.13;;;;;;;;;;4987927;28;20205;-78
2022/01/09 10:45:18;;;;;;;16.88;5.47;;;;;;;;;;5006423;28;20283;-79
2022/01/09 10:47:48;;;;;;;10.60;5.75;;;;;;;;;;5011708;28;20635;-77
2022/01/09 10:50:24;;;;;;;13.98;5.38;;;;;;;;;;4994953;28;20207;-78
2022/01/09 10:52:51;;;;;;;18.77;5.20;;;;;;;;;;5013634;28;20227;-78
2022/01/09 10:55:18;;;;;;;13.20;6.18;;;;;;;;;;4989783;28;20197;-77
2022/01/09 10:57:46;;;;;;;15.40;6.60;;;;;;;;;;4990113;28;20220;-79
2022/01/09 11:00:14;;;;;;;10.02;4.90;;;;;;;;;;4976275;28;20221;-78
2022/01/09 11:02:42;;;;;;;19.83;10.98;;;;;;;;;;5011571;28;20200;-78
2022/01/09 11:05:13;;;;;;;15.98;11.05;;;;;;;;;;4995977;28;20193;-78
2022/01/09 11:07:43;;;;;;;18.27;10.82;;;;;;;;;;4993113;28;20216;-78
2022/01/09 11:10:11;;;;;;;27.45;12.98;;;;;;;;;;4992743;28;20266;-77
2022/01/09 11:12:47;;;;;;;20.83;10.02;;;;;;;;;;4990338;28;20199;-80
2022/01/09 11:15:21;;;;;;;11.95;5.53;;;;;;;;;;4989766;28;20196;-79
2022/01/09 11:17:48;;;;;;;10.60;6.20;;;;;;;;;;4991067;28;20583;-78
2022/01/09 11:20:17;;;;;;;10.63;5.00;;;;;;;;;;4991464;28;20226;-80
2022/01/09 11:22:47;;;;;;;7.63;3.70;;;;;;;;;;4993130;28;20204;-78
2022/01/09 11:25:20;;;;;;;9.13;3.80;;;;;;;;;;4991332;28;20592;-77
2022/01/09 11:27:51;;;;;;;15.00;4.53;;;;;;;;;;4990551;28;20236;-79
2022/01/09 11:30:21;;;;;;;8.02;4.43;;;;;;;;;;4988066;28;20204;-78
2022/01/09 11:32:54;;;;;;;14.57;4.53;;;;;;;;;;4990594;28;20209;-84
2022/01/09 11:35:27;;;;;;;7.63;4.13;;;;;;;;;;4992781;28;20200;-82
2022/01/09 11:38:01;;;;;;;12.65;5.30;;;;;;;;;;4991980;28;20249;-81
2022/01/09 11:40:29;;;;;;;13.85;6.35;;;;;;;;;;4991931;28;20268;-81
2022/01/09 11:43:00;;;;;;;8.77;5.30;;;;;;;;;;4971669;28;20205;-80
2022/01/09 11:45:39;;;;;;;10.15;4.40;;;;;;;;;;4989675;28;20216;-82
2022/01/09 11:48:07;;;;;;;12.95;5.40;;;;;;;;;;4987750;28;20205;-84
2022/01/09 11:50:36;;;;;;;17.52;6.88;;;;;;;;;;4990086;28;20717;-82
2022/01/09 11:53:04;;;;;;;15.00;7.45;;;;;;;;;;4991761;28;20291;-80
2022/01/09 11:55:36;;;;;;;11.05;5.07;;;;;;;;;;4991703;28;20208;-82
2022/01/09 11:58:11;;;;;;;8.27;4.65;;;;;;;;;;4991786;28;20231;-80
2022/01/09 12:00:39;;;;;;;9.40;4.65;;;;;;;;;;4992723;28;20255;-80
2022/01/09 12:03:21;;;;;;;10.68;3.90;;;;;;;;;;4973951;28;20201;-80
2022/01/09 12:06:03;;;;;;;13.57;6.00;;;;;;;;;;4993148;28;20212;-77
2022/01/09 12:09:02;;;;;;;11.77;3.97;;;;;;;;;;4975770;28;20303;-78
2022/01/09 12:11:45;;;;;;;10.07;4.60;;;;;;;;;;4974443;28;20292;-81
2022/01/09 12:14:32;;;;;;;12.23;4.28;;;;;;;;;;4976431;28;20196;-77
2022/01/09 12:16:59;;;;;;;9.93;3.90;;;;;;;;;;4977906;28;20220;-78
2022/01/09 12:19:41;;;;;;;7.38;4.60;;;;;;;;;;4992204;28;20219;-79
2022/01/09 12:22:09;;;;;;;12.63;3.65;;;;;;;;;;4989038;28;20197;-77
2022/01/09 12:24:41;;;;;;;12.80;3.92;;;;;;;;;;4989885;28;20197;-78
2022/01/09 12:27:23;;;;;;;11.27;3.83;;;;;;;;;;4988302;28;20693;-80
2022/01/09 12:29:50;;;;;;;8.18;3.22;;;;;;;;;;4988762;28;20231;-79
2022/01/09 12:32:32;;;;;;;11.02;4.13;;;;;;;;;;4989327;28;20204;-79
2022/01/09 12:35:13;;;;;;;16.20;3.67;;;;;;;;;;4990998;28;20215;-78
2022/01/09 12:37:45;;;;;;;10.48;3.50;;;;;;;;;;4973773;28;20232;-78
2022/01/09 12:40:15;;;;;;;7.32;2.95;;;;;;;;;;4989935;28;20383;-77
2022/01/09 12:42:46;;;;;;;12.10;3.85;;;;;;;;;;4993525;28;20208;-79
2022/01/09 12:45:13;;;;;;;11.35;3.30;;;;;;;;;;4993087;28;20554;-79
2022/01/09 12:47:41;;;;;;;11.45;3.10;;;;;;;;;;4990546;28;20224;-79
2022/01/09 12:50:08;;;;;;;11.70;3.40;;;;;;;;;;4988278;28;20209;-79
2022/01/09 12:52:35;;;;;;;9.13;2.90;;;;;;;;;;4990850;28;20602;-76
2022/01/09 12:55:06;;;;;;;6.38;3.15;;;;;;;;;;4989979;28;20200;-79
2022/01/09 12:57:48;;;;;;;9.13;4.07;;;;;;;;;;4989928;28;20701;-78
2022/01/09 13:00:17;;;;;;;8.63;2.50;;;;;;;;;;4976448;28;20234;-77
2022/01/09 13:02:52;;;;;;;12.20;3.42;;;;;;;;;;4991547;28;20200;-78
2022/01/09 13:05:21;;;;;;;9.40;3.80;;;;;;;;;;4992247;28;20532;-78
2022/01/09 13:07:55;;;;;;;10.95;3.80;;;;;;;;;;4991294;28;20225;-77
2022/01/09 13:10:28;;;;;;;7.32;3.10;;;;;;;;;;4989187;28;20193;-79
2022/01/09 13:13:12;;;;;;;6.97;3.08;;;;;;;;;;4986017;28;20208;-80
2022/01/09 13:15:43;;;;;;;4.97;2.67;;;;;;;;;;4949894;28;20228;-80
2022/01/09 13:18:11;;;;;;;5.90;3.35;;;;;;;;;;4961890;28;20367;-79
2022/01/09 13:20:38;;;;;;;9.63;4.28;;;;;;;;;;4949394;28;20221;-78
2022/01/09 13:23:05;;;;;;;9.65;3.63;;;;;;;;;;4949557;28;20198;-78
2022/01/09 13:25:42;;;;;;;8.80;3.47;;;;;;;;;;4948200;28;20560;-80
2022/01/09 13:28:17;;;;;;;9.70;4.53;;;;;;;;;;4948346;28;20320;-79
2022/01/09 13:30:46;;;;;;;10.82;4.20;;;;;;;;;;4947335;28;20193;-80
2022/01/09 13:33:13;;;;;;;8.75;3.55;;;;;;;;;;4947386;28;20206;-79
2022/01/09 13:35:41;;;;;;;9.80;3.70;;;;;;;;;;4948530;28;20205;-78
2022/01/09 13:38:09;;;;;;;17.67;8.68;;;;;;;;;;4948337;28;20320;-78
2022/01/09 13:40:37;;;;;;;14.35;6.32;;;;;;;;;;4948625;28;20229;-78
2022/01/09 13:43:04;;;;;;;9.35;4.72;;;;;;;;;;4949958;28;20205;-78
2022/01/09 13:45:34;;;;;;;12.02;3.70;;;;;;;;;;4951851;28;20209;-80
2022/01/09 13:48:04;;;;;;;11.80;3.92;;;;;;;;;;4977816;28;20700;-77
2022/01/09 13:50:33;;;;;;;10.48;3.47;;;;;;;;;;4990110;28;20276;-77
2022/01/09 13:53:07;;;;;;;10.55;3.58;;;;;;;;;;4987740;28;20214;-77
2022/01/09 13:55:35;;;;;;;7.80;3.38;;;;;;;;;;4971750;28;20214;-77
2022/01/09 13:58:06;;;;;;;8.27;3.05;;;;;;;;;;4986669;28;20944;-81
2022/01/09 14:00:34;;;;;;;12.80;2.85;;;;;;;;;;4973449;28;20220;-78
2022/01/09 14:03:04;;;;;;;5.05;2.95;;;;;;;;;;4991230;28;20201;-77
2022/01/09 14:05:35;;;;;;;15.18;3.20;;;;;;;;;;4972606;28;20197;-82
2022/01/09 14:08:02;;;;;;;8.27;2.75;;;;;;;;;;4991001;28;20220;-80
2022/01/09 14:10:33;;;;;;;11.20;3.47;;;;;;;;;;4990040;28;20196;-79
2022/01/09 14:13:00;;;;;;;13.10;3.78;;;;;;;;;;4973757;28;20214;-80
2022/01/09 14:15:28;;;;;;;11.63;4.13;;;;;;;;;;4985312;28;20201;-77
2022/01/09 14:17:56;;;;;;;9.57;3.40;;;;;;;;;;4964804;28;20223;-79
2022/01/09 14:20:25;;;;;;;11.18;2.92;;;;;;;;;;4970267;28;20224;-80
2022/01/09 14:22:53;;;;;;;12.15;3.58;;;;;;;;;;4991521;28;20385;-78
2022/01/09 14:25:26;;;;;;;13.40;4.00;;;;;;;;;;4975213;28;20883;-78
2022/01/09 14:27:53;;;;;;;6.75;3.10;;;;;;;;;;4987809;28;20228;-79
2022/01/09 14:30:22;;;;;;;8.30;2.80;;;;;;;;;;4976695;28;20193;-78
2022/01/09 14:32:51;;;;;;;11.45;3.28;;;;;;;;;;4990848;28;20201;-76
2022/01/09 14:35:28;;;;;;;9.88;2.78;;;;;;;;;;4991871;28;20232;-76
2022/01/09 14:37:59;;;;;;;9.40;3.25;;;;;;;;;;4993373;28;20243;-77
2022/01/09 14:40:27;;;;;;;13.20;4.88;;;;;;;;;;4974061;28;20279;-78
2022/01/09 14:42:54;;;;;;;13.40;4.20;;;;;;;;;;4991865;28;20197;-79
2022/01/09 14:45:21;;;;;;;19.67;4.35;;;;;;;;;;4992633;28;20197;-79